Time;durP1;ratioP1;P1;durP2;ratioP2;P2;SDS_P1;SDS_P2;PMS_P1;PMS_P2;Temp;Humidity;BMP_temperature;BMP_pressure;BME280_temperature;BME280_humidity;BME280_pressure;Samples;Min_cycle;Max_cycle;Signal;HPM_P1;HPM_P2
2021/05/03 00:01:08;;;;;;;3.53;3.20;;;;;;;;;;5080420;28;20037;-59
2021/05/03 00:03:35;;;;;;;7.05;4.00;;;;;;;;;;5085935;28;20120;-59
2021/05/03 00:06:01;;;;;;;6.35;3.20;;;;;;;;;;5087584;28;20419;-60
2021/05/03 00:08:27;;;;;;;3.10;2.80;;;;;;;;;;5083762;28;20055;-59
2021/05/03 00:10:53;;;;;;;4.60;2.88;;;;;;;;;;5083861;28;20069;-59
2021/05/03 00:13:20;;;;;;;3.40;2.85;;;;;;;;;;5086408;28;20097;-59
2021/05/03 00:15:46;;;;;;;4.05;3.03;;;;;;;;;;5085024;28;20043;-59
2021/05/03 00:18:12;;;;;;;4.65;2.90;;;;;;;;;;5083500;28;20075;-59
2021/05/03 00:20:39;;;;;;;5.10;3.63;;;;;;;;;;5084300;28;20514;-59
2021/05/03 00:23:05;;;;;;;8.52;3.22;;;;;;;;;;5085929;28;20051;-57
2021/05/03 00:25:32;;;;;;;5.55;3.15;;;;;;;;;;5081896;28;20494;-59
2021/05/03 00:27:58;;;;;;;4.10;2.78;;;;;;;;;;5080067;28;20510;-59
2021/05/03 00:30:25;;;;;;;4.32;2.60;;;;;;;;;;5077183;28;20043;-58
2021/05/03 00:32:51;;;;;;;5.68;2.97;;;;;;;;;;5084851;28;20033;-58
2021/05/03 00:35:17;;;;;;;2.95;2.65;;;;;;;;;;5086106;28;20067;-58
2021/05/03 00:37:48;;;;;;;3.03;2.65;;;;;;;;;;5088422;28;20387;-59
2021/05/03 00:40:14;;;;;;;3.42;2.67;;;;;;;;;;5082689;28;20446;-59
2021/05/03 00:42:44;;;;;;;4.47;3.08;;;;;;;;;;5086112;28;20096;-59
2021/05/03 00:45:12;;;;;;;3.97;2.90;;;;;;;;;;5081397;28;20118;-59
2021/05/03 00:47:39;;;;;;;3.13;2.70;;;;;;;;;;5085681;28;20055;-59
2021/05/03 00:50:06;;;;;;;3.10;2.80;;;;;;;;;;5081461;28;20044;-58
2021/05/03 00:52:33;;;;;;;;;;;;;;;;;;5071919;28;20040;-59
2021/05/03 00:54:59;;;;;;;4.68;2.85;;;;;;;;;;5083729;28;19920;-59
2021/05/03 00:57:25;;;;;;;3.70;2.60;;;;;;;;;;5090108;28;20066;-58
2021/05/03 00:59:52;;;;;;;3.28;2.72;;;;;;;;;;5087975;28;20671;-59
2021/05/03 01:02:18;;;;;;;3.65;2.47;;;;;;;;;;5086225;28;20553;-59
2021/05/03 01:04:45;;;;;;;4.50;2.75;;;;;;;;;;5083173;28;20032;-58
2021/05/03 01:07:11;;;;;;;3.30;2.70;;;;;;;;;;5086682;28;20043;-57
2021/05/03 01:09:38;;;;;;;6.07;2.90;;;;;;;;;;5082264;28;20338;-59
2021/05/03 01:12:04;;;;;;;3.20;2.65;;;;;;;;;;5085399;28;20037;-58
2021/05/03 01:14:31;;;;;;;5.90;3.25;;;;;;;;;;5082435;28;20040;-58
2021/05/03 01:16:57;;;;;;;5.00;2.85;;;;;;;;;;5084063;28;20424;-58
2021/05/03 01:19:23;;;;;;;3.78;3.03;;;;;;;;;;5086229;28;20458;-58
2021/05/03 01:21:50;;;;;;;3.80;2.53;;;;;;;;;;5081969;28;20124;-59
2021/05/03 01:24:17;;;;;;;3.30;2.90;;;;;;;;;;5077397;28;20098;-59
2021/05/03 01:26:43;;;;;;;4.15;3.33;;;;;;;;;;5074259;28;20040;-59
2021/05/03 01:29:10;;;;;;;3.42;2.70;;;;;;;;;;5089018;28;20058;-59
2021/05/03 01:31:36;;;;;;;5.13;3.55;;;;;;;;;;5082633;28;20056;-58
2021/05/03 01:34:06;;;;;;;3.22;2.90;;;;;;;;;;5082588;28;20068;-58
2021/05/03 01:36:37;;;;;;;4.07;3.10;;;;;;;;;;5087518;28;20097;-60
2021/05/03 01:39:05;;;;;;;4.13;2.90;;;;;;;;;;5080898;28;20079;-59
2021/05/03 01:41:31;;;;;;;3.20;2.60;;;;;;;;;;5085659;28;20052;-58
2021/05/03 01:43:57;;;;;;;3.08;2.67;;;;;;;;;;5089450;28;20039;-59
2021/05/03 01:46:25;;;;;;;2.85;2.60;;;;;;;;;;5088946;28;20123;-58
2021/05/03 01:48:51;;;;;;;5.18;3.08;;;;;;;;;;5089942;28;20048;-60
2021/05/03 01:51:18;;;;;;;8.55;2.90;;;;;;;;;;5077362;28;20391;-58
2021/05/03 01:53:45;;;;;;;4.15;3.20;;;;;;;;;;5080629;28;20064;-59
2021/05/03 01:56:13;;;;;;;10.27;2.78;;;;;;;;;;5083059;28;20040;-59
2021/05/03 01:58:40;;;;;;;3.83;3.13;;;;;;;;;;5084158;28;20044;-58
2021/05/03 02:01:07;;;;;;;3.38;2.92;;;;;;;;;;5080878;28;20059;-59
2021/05/03 02:03:34;;;;;;;3.80;3.30;;;;;;;;;;5088485;28;20398;-59
2021/05/03 02:06:01;;;;;;;3.65;3.05;;;;;;;;;;5089713;28;20404;-59
2021/05/03 02:08:27;;;;;;;4.18;2.90;;;;;;;;;;5082547;28;20060;-59
2021/05/03 02:10:53;;;;;;;4.00;2.70;;;;;;;;;;5079575;28;20064;-56
2021/05/03 02:13:20;;;;;;;3.10;2.80;;;;;;;;;;5091394;28;20048;-59
2021/05/03 02:15:47;;;;;;;5.03;2.83;;;;;;;;;;5081502;28;20387;-58
2021/05/03 02:18:14;;;;;;;3.67;2.85;;;;;;;;;;5081110;28;20160;-59
2021/05/03 02:20:41;;;;;;;4.47;2.75;;;;;;;;;;5084642;28;20158;-58
2021/05/03 02:23:11;;;;;;;5.32;2.95;;;;;;;;;;5083306;28;20419;-58
2021/05/03 02:25:37;;;;;;;9.35;3.00;;;;;;;;;;5089702;28;20533;-57
2021/05/03 02:28:07;;;;;;;4.57;2.90;;;;;;;;;;5080497;28;20048;-59
2021/05/03 02:30:34;;;;;;;4.18;2.80;;;;;;;;;;5084022;28;20048;-59
2021/05/03 02:33:00;;;;;;;3.95;2.80;;;;;;;;;;5084540;28;20050;-59
2021/05/03 02:35:32;;;;;;;5.03;3.25;;;;;;;;;;5087185;28;20036;-59
2021/05/03 02:38:03;;;;;;;3.45;2.80;;;;;;;;;;5084288;28;20032;-59
2021/05/03 02:40:29;;;;;;;3.78;3.00;;;;;;;;;;5088047;28;20051;-59
2021/05/03 02:43:00;;;;;;;3.25;2.90;;;;;;;;;;5077774;28;20040;-59
2021/05/03 02:45:27;;;;;;;3.23;2.90;;;;;;;;;;5080340;28;20044;-59
2021/05/03 02:47:54;;;;;;;6.30;3.00;;;;;;;;;;5086199;28;20072;-59
2021/05/03 02:50:21;;;;;;;3.57;3.10;;;;;;;;;;5087064;28;20523;-58
2021/05/03 02:52:49;;;;;;;4.07;2.90;;;;;;;;;;5082666;28;20041;-59
2021/05/03 02:55:15;;;;;;;4.00;3.30;;;;;;;;;;5086358;28;20040;-59
2021/05/03 02:57:42;;;;;;;4.88;2.80;;;;;;;;;;5087836;28;20500;-57
2021/05/03 03:00:10;;;;;;;3.45;2.75;;;;;;;;;;5087394;28;20071;-59
2021/05/03 03:02:36;;;;;;;3.67;3.08;;;;;;;;;;5087078;28;20040;-57
2021/05/03 03:05:03;;;;;;;5.28;3.40;;;;;;;;;;5085319;28;20052;-58
2021/05/03 03:07:29;;;;;;;6.15;3.55;;;;;;;;;;5087199;28;20088;-57
2021/05/03 03:09:55;;;;;;;8.35;3.70;;;;;;;;;;5086826;28;20032;-58
2021/05/03 03:12:21;;;;;;;9.13;3.13;;;;;;;;;;5086185;28;20067;-59
2021/05/03 03:14:48;;;;;;;4.60;3.58;;;;;;;;;;5084279;28;20085;-58
2021/05/03 03:17:14;;;;;;;4.15;3.10;;;;;;;;;;5085601;28;20043;-59
2021/05/03 03:19:41;;;;;;;4.65;3.28;;;;;;;;;;5066282;28;20040;-59
2021/05/03 03:22:08;;;;;;;4.55;3.42;;;;;;;;;;5089376;28;20094;-59
2021/05/03 03:24:35;;;;;;;7.22;3.30;;;;;;;;;;5082672;28;20549;-59
2021/05/03 03:27:01;;;;;;;4.13;3.47;;;;;;;;;;5083057;28;20049;-58
2021/05/03 03:29:27;;;;;;;3.97;3.20;;;;;;;;;;5086235;28;20054;-58
2021/05/03 03:31:54;;;;;;;5.28;3.70;;;;;;;;;;5086851;28;20056;-58
2021/05/03 03:34:20;;;;;;;13.32;3.20;;;;;;;;;;5086486;28;20508;-58
2021/05/03 03:36:47;;;;;;;4.15;3.40;;;;;;;;;;5083644;28;20076;-58
2021/05/03 03:39:13;;;;;;;3.57;2.97;;;;;;;;;;5086702;28;20046;-58
2021/05/03 03:41:40;;;;;;;4.45;3.75;;;;;;;;;;5084685;28;20048;-59
2021/05/03 03:44:06;;;;;;;4.50;3.38;;;;;;;;;;5084019;28;20503;-58
2021/05/03 03:46:33;;;;;;;3.67;2.87;;;;;;;;;;5083157;28;20114;-58
2021/05/03 03:48:59;;;;;;;4.75;3.40;;;;;;;;;;5082061;28;20040;-57
2021/05/03 03:51:25;;;;;;;4.20;3.42;;;;;;;;;;5084782;28;20460;-58
2021/05/03 03:53:52;;;;;;;4.78;3.33;;;;;;;;;;5086666;28;20407;-58
2021/05/03 03:56:19;;;;;;;5.93;3.50;;;;;;;;;;5085528;28;20499;-58
2021/05/03 03:58:45;;;;;;;6.05;3.60;;;;;;;;;;5082997;28;20059;-58
2021/05/03 04:01:12;;;;;;;4.05;3.63;;;;;;;;;;5089086;28;20058;-57
2021/05/03 04:03:47;;;;;;;4.33;3.60;;;;;;;;;;5086466;28;20089;-59
2021/05/03 04:09:15;;;;;;;4.30;3.28;;;;;;;;;;5086701;28;20040;-58
2021/05/03 04:27:37;;;;;;;5.90;3.35;;;;;;;;;;5083896;28;20036;-56
2021/05/03 04:30:05;;;;;;;4.32;3.42;;;;;;;;;;5085242;28;20036;-58
2021/05/03 04:32:31;;;;;;;3.40;3.10;;;;;;;;;;5083448;28;20052;-58
2021/05/03 04:34:58;;;;;;;4.72;3.00;;;;;;;;;;5084026;28;20039;-57
2021/05/03 04:37:24;;;;;;;5.20;3.30;;;;;;;;;;5084927;28;20055;-58
2021/05/03 04:39:51;;;;;;;5.13;3.15;;;;;;;;;;5085859;28;20063;-58
2021/05/03 04:42:17;;;;;;;3.38;3.08;;;;;;;;;;5081301;28;20039;-58
2021/05/03 04:44:43;;;;;;;4.30;3.35;;;;;;;;;;5082371;28;20040;-55
2021/05/03 04:47:09;;;;;;;5.30;3.20;;;;;;;;;;5081375;28;20111;-51
2021/05/03 04:49:37;;;;;;;;;;;;;;;;;;5087095;28;20044;-58
2021/05/03 04:52:03;;;;;;;6.40;3.45;;;;;;;;;;5085254;28;19924;-57
2021/05/03 04:54:29;;;;;;;4.22;3.50;;;;;;;;;;5088448;28;20432;-56
2021/05/03 04:56:55;;;;;;;4.07;3.53;;;;;;;;;;5083082;28;20043;-57
2021/05/03 04:59:22;;;;;;;7.45;3.25;;;;;;;;;;5082358;28;20139;-57
2021/05/03 05:01:48;;;;;;;3.75;2.97;;;;;;;;;;5082470;28;20586;-57
2021/05/03 05:04:14;;;;;;;4.70;3.58;;;;;;;;;;5085161;28;20050;-55
2021/05/03 05:06:40;;;;;;;5.45;3.90;;;;;;;;;;5063186;28;20040;-59
2021/05/03 05:09:07;;;;;;;4.40;3.80;;;;;;;;;;5081539;28;20044;-58
2021/05/03 05:11:35;;;;;;;4.18;3.20;;;;;;;;;;5078343;28;20051;-58
2021/05/03 05:14:01;;;;;;;5.10;3.65;;;;;;;;;;5079962;28;20071;-57
2021/05/03 05:16:27;;;;;;;5.50;3.35;;;;;;;;;;5081058;28;20396;-59
2021/05/03 05:18:53;;;;;;;4.38;3.38;;;;;;;;;;5086800;28;20036;-58
2021/05/03 05:21:20;;;;;;;4.60;3.88;;;;;;;;;;5089997;28;20048;-58
2021/05/03 05:23:47;;;;;;;6.93;3.22;;;;;;;;;;5069126;28;20480;-58
2021/05/03 05:26:14;;;;;;;4.55;3.00;;;;;;;;;;5078369;28;20078;-59
2021/05/03 05:28:40;;;;;;;4.07;3.35;;;;;;;;;;5089905;28;20051;-57
2021/05/03 05:31:07;;;;;;;3.97;3.17;;;;;;;;;;5081127;28;20048;-56
2021/05/03 05:33:33;;;;;;;6.18;3.40;;;;;;;;;;5085286;28;20040;-55
2021/05/03 05:35:59;;;;;;;5.80;3.88;;;;;;;;;;5084092;28;20090;-59
2021/05/03 05:38:25;;;;;;;4.38;2.90;;;;;;;;;;5082230;28;20044;-58
2021/05/03 05:40:52;;;;;;;5.90;3.60;;;;;;;;;;5085582;28;20092;-59
2021/05/03 05:43:18;;;;;;;4.72;3.10;;;;;;;;;;5087441;28;20134;-59
2021/05/03 05:45:44;;;;;;;4.30;3.35;;;;;;;;;;5085611;28;20106;-58
2021/05/03 05:48:10;;;;;;;4.47;3.30;;;;;;;;;;5085515;28;20048;-58
2021/05/03 05:50:36;;;;;;;5.30;3.38;;;;;;;;;;5089404;28;20040;-58
2021/05/03 05:53:04;;;;;;;4.43;3.58;;;;;;;;;;5083405;28;20044;-58
2021/05/03 05:55:31;;;;;;;4.13;3.50;;;;;;;;;;5089079;28;20055;-59
2021/05/03 05:57:57;;;;;;;5.95;3.75;;;;;;;;;;5084808;28;20090;-58
2021/05/03 06:00:23;;;;;;;5.32;3.72;;;;;;;;;;5077760;28;20032;-58
2021/05/03 06:02:50;;;;;;;4.15;3.75;;;;;;;;;;5071601;28;20455;-58
2021/05/03 06:05:18;;;;;;;4.80;3.65;;;;;;;;;;5078002;28;20047;-59
2021/05/03 06:07:44;;;;;;;4.65;3.63;;;;;;;;;;5085484;28;20039;-59
2021/05/03 06:10:12;;;;;;;4.10;3.40;;;;;;;;;;5095901;28;20082;-57
2021/05/03 06:12:38;;;;;;;5.68;3.83;;;;;;;;;;5087367;28;20052;-59
2021/05/03 06:15:05;;;;;;;6.30;3.58;;;;;;;;;;5085434;28;20070;-57
2021/05/03 06:17:32;;;;;;;5.88;3.70;;;;;;;;;;5090482;28;20187;-58
2021/05/03 06:19:58;;;;;;;4.95;4.00;;;;;;;;;;5088201;28;20050;-56
2021/05/03 06:22:25;;;;;;;5.20;3.63;;;;;;;;;;5088189;28;20500;-59
2021/05/03 06:24:51;;;;;;;5.23;3.97;;;;;;;;;;5081670;28;20079;-59
2021/05/03 06:27:17;;;;;;;6.25;3.90;;;;;;;;;;5083338;28;20119;-58
2021/05/03 06:29:43;;;;;;;5.85;3.95;;;;;;;;;;5086260;28;20048;-58
2021/05/03 06:32:09;;;;;;;5.68;4.05;;;;;;;;;;5072039;28;20420;-59
2021/05/03 06:34:38;;;;;;;8.02;4.10;;;;;;;;;;5075894;28;20071;-59
2021/05/03 06:37:04;;;;;;;5.00;3.95;;;;;;;;;;5086442;28;20441;-58
2021/05/03 06:39:31;;;;;;;4.93;4.18;;;;;;;;;;5079877;28;20135;-59
2021/05/03 06:41:57;;;;;;;9.07;4.20;;;;;;;;;;5088330;28;20043;-59
2021/05/03 06:44:23;;;;;;;5.53;4.25;;;;;;;;;;5087020;28;20500;-58
2021/05/03 06:46:50;;;;;;;5.28;4.15;;;;;;;;;;5086890;28;20115;-59
2021/05/03 06:49:17;;;;;;;5.32;4.13;;;;;;;;;;5088872;28;20067;-59
2021/05/03 06:51:44;;;;;;;7.05;3.80;;;;;;;;;;5081591;28;20532;-57
2021/05/03 06:54:11;;;;;;;4.55;3.90;;;;;;;;;;5075292;28;20138;-59
2021/05/03 06:56:37;;;;;;;4.93;4.18;;;;;;;;;;5078218;28;20040;-59
2021/05/03 06:59:03;;;;;;;5.50;4.38;;;;;;;;;;5085006;28;20074;-59
2021/05/03 07:01:29;;;;;;;4.90;4.40;;;;;;;;;;5086810;28;20496;-59
2021/05/03 07:03:59;;;;;;;7.90;4.38;;;;;;;;;;5084768;28;20048;-59
2021/05/03 07:06:25;;;;;;;5.88;4.53;;;;;;;;;;5087070;28;20046;-59
2021/05/03 07:08:52;;;;;;;4.97;4.28;;;;;;;;;;5081088;28;20052;-59
2021/05/03 07:11:21;;;;;;;8.90;4.40;;;;;;;;;;5071112;28;20135;-59
2021/05/03 07:13:47;;;;;;;7.97;4.43;;;;;;;;;;5084219;28;20052;-59
2021/05/03 07:16:14;;;;;;;5.47;4.70;;;;;;;;;;5080361;28;20044;-59
2021/05/03 07:18:40;;;;;;;5.10;3.75;;;;;;;;;;5080692;28;20064;-59
2021/05/03 07:21:06;;;;;;;7.78;4.10;;;;;;;;;;5082014;28;20044;-59
2021/05/03 07:23:33;;;;;;;4.47;4.07;;;;;;;;;;5079755;28;20135;-59
2021/05/03 07:26:03;;;;;;;5.07;3.88;;;;;;;;;;5083474;28;20039;-59
2021/05/03 07:28:29;;;;;;;7.45;4.22;;;;;;;;;;5079697;28;20123;-58
2021/05/03 07:30:59;;;;;;;5.78;3.85;;;;;;;;;;5084654;28;20040;-58
2021/05/03 07:33:26;;;;;;;8.45;4.00;;;;;;;;;;5083504;28;20234;-58
2021/05/03 07:35:52;;;;;;;;;;;;;;;;;;5084332;28;20502;-59
2021/05/03 07:38:19;;;;;;;6.38;3.45;;;;;;;;;;5079738;28;19939;-58
2021/05/03 07:40:45;;;;;;;6.32;4.20;;;;;;;;;;5071621;28;20037;-59
2021/05/03 07:43:12;;;;;;;6.93;4.28;;;;;;;;;;5080976;28;20044;-59
2021/05/03 07:45:38;;;;;;;4.97;4.00;;;;;;;;;;5081366;28;20063;-59
2021/05/03 07:48:04;;;;;;;6.07;3.88;;;;;;;;;;5082765;28;20050;-59
2021/05/03 07:50:30;;;;;;;8.07;4.32;;;;;;;;;;5080949;28;20045;-59
2021/05/03 07:52:58;;;;;;;5.78;4.03;;;;;;;;;;5084328;28;20514;-58
2021/05/03 07:55:24;;;;;;;6.13;4.10;;;;;;;;;;5081926;28;20037;-59
2021/05/03 07:57:51;;;;;;;5.82;4.22;;;;;;;;;;5083290;28;20040;-59
2021/05/03 08:00:18;;;;;;;4.53;3.85;;;;;;;;;;5086301;28;20044;-59
2021/05/03 08:02:45;;;;;;;5.03;3.72;;;;;;;;;;5086064;28;20127;-59
2021/05/03 08:05:11;;;;;;;5.57;4.13;;;;;;;;;;5077727;28;20075;-59
2021/05/03 08:07:38;;;;;;;7.37;4.43;;;;;;;;;;5085166;28;20044;-59
2021/05/03 08:10:08;;;;;;;5.45;4.22;;;;;;;;;;5085488;28;20184;-59
2021/05/03 08:12:34;;;;;;;5.57;4.15;;;;;;;;;;5084080;28;20036;-59
2021/05/03 08:15:10;;;;;;;6.05;4.00;;;;;;;;;;5077695;28;20044;-59
2021/05/03 08:17:37;;;;;;;6.82;3.88;;;;;;;;;;5077019;28;20544;-59
2021/05/03 08:20:03;;;;;;;;;;;;;;;;;;5081893;28;20086;-59
2021/05/03 08:22:29;;;;;;;5.10;3.83;;;;;;;;;;5077705;28;19920;-59
2021/05/03 08:24:56;;;;;;;5.65;4.50;;;;;;;;;;5084897;28;20067;-59
2021/05/03 08:27:22;;;;;;;5.85;3.63;;;;;;;;;;5085795;28;20492;-59
2021/05/03 08:29:48;;;;;;;6.03;3.65;;;;;;;;;;5080519;28;20048;-58
2021/05/03 08:32:14;;;;;;;5.75;4.22;;;;;;;;;;5088874;28;20040;-59
2021/05/03 08:34:42;;;;;;;5.38;3.28;;;;;;;;;;5079621;28;20047;-59
2021/05/03 08:37:09;;;;;;;5.07;3.72;;;;;;;;;;5082574;28;20044;-59
2021/05/03 08:39:35;;;;;;;5.18;3.85;;;;;;;;;;5081029;28;20062;-58
2021/05/03 08:42:02;;;;;;;4.70;3.40;;;;;;;;;;5074266;28;20132;-59
2021/05/03 08:44:29;;;;;;;4.43;3.42;;;;;;;;;;5082315;28;20067;-59
2021/05/03 08:46:56;;;;;;;4.00;3.55;;;;;;;;;;5085659;28;20446;-58
2021/05/03 08:54:39;;;;;;;5.72;3.97;;;;;;;;;;5091977;28;20044;-59
2021/05/03 08:57:09;;;;;;;5.00;3.78;;;;;;;;;;5087172;28;20119;-59
2021/05/03 08:59:37;;;;;;;5.13;3.67;;;;;;;;;;5086311;28;20047;-59
2021/05/03 09:02:07;;;;;;;5.95;3.75;;;;;;;;;;5087989;28;20502;-59
2021/05/03 09:04:34;;;;;;;5.65;3.72;;;;;;;;;;5084294;28;20113;-58
2021/05/03 09:07:04;;;;;;;4.65;3.45;;;;;;;;;;5087992;28;20045;-59
2021/05/03 09:09:34;;;;;;;6.00;3.88;;;;;;;;;;5087349;28;20935;-59
2021/05/03 09:12:02;;;;;;;4.05;3.30;;;;;;;;;;5090568;28;20159;-59
2021/05/03 09:14:31;;;;;;;8.68;3.67;;;;;;;;;;5082031;28;20045;-59
2021/05/03 09:17:00;;;;;;;6.75;3.30;;;;;;;;;;5082339;28;20504;-59
2021/05/03 09:19:27;;;;;;;3.92;3.30;;;;;;;;;;5088458;28;20050;-60
2021/05/03 09:21:54;;;;;;;4.65;3.80;;;;;;;;;;5081776;28;20059;-59
2021/05/03 09:24:28;;;;;;;6.95;3.60;;;;;;;;;;5088365;28;20352;-59
2021/05/03 09:27:06;;;;;;;4.53;3.60;;;;;;;;;;5087991;28;20072;-60
2021/05/03 09:29:37;;;;;;;3.70;3.00;;;;;;;;;;5088712;28;20040;-59
2021/05/03 09:32:12;;;;;;;5.63;3.38;;;;;;;;;;5085084;28;20051;-58
2021/05/03 09:34:46;;;;;;;6.93;3.30;;;;;;;;;;5090659;28;20057;-59
2021/05/03 09:37:16;;;;;;;5.88;3.30;;;;;;;;;;5088079;28;20036;-59
2021/05/03 09:39:45;;;;;;;6.68;3.75;;;;;;;;;;5073862;28;20408;-59
2021/05/03 09:42:11;;;;;;;7.63;2.90;;;;;;;;;;5066056;28;20482;-59
2021/05/03 09:44:38;;;;;;;3.67;2.95;;;;;;;;;;5081293;28;20052;-59
2021/05/03 09:47:05;;;;;;;9.85;3.38;;;;;;;;;;5083083;28;20072;-57
2021/05/03 09:49:32;;;;;;;6.10;3.28;;;;;;;;;;5084107;28;20048;-56
2021/05/03 09:52:01;;;;;;;4.63;3.30;;;;;;;;;;5089448;28;20492;-56
2021/05/03 09:54:31;;;;;;;7.88;3.55;;;;;;;;;;5089017;28;20064;-51
2021/05/03 09:57:05;;;;;;;4.60;3.40;;;;;;;;;;5081709;28;20131;-51
2021/05/03 09:59:31;;;;;;;4.85;3.90;;;;;;;;;;5088109;28;20089;-50
2021/05/03 10:02:01;;;;;;;5.53;3.65;;;;;;;;;;5089608;28;20040;-48
2021/05/03 10:04:28;;;;;;;7.70;4.25;;;;;;;;;;5085370;28;20059;-48
2021/05/03 10:06:58;;;;;;;4.13;3.42;;;;;;;;;;5085667;28;20044;-50
2021/05/03 10:09:25;;;;;;;3.78;3.38;;;;;;;;;;5087328;28;20040;-49
2021/05/03 10:11:52;;;;;;;5.18;4.03;;;;;;;;;;5086068;28;20552;-51
2021/05/03 10:14:19;;;;;;;5.33;4.37;;;;;;;;;;5080219;28;20040;-51
2021/05/03 10:16:46;;;;;;;4.07;3.70;;;;;;;;;;5089376;28;20082;-48
2021/05/03 10:19:13;;;;;;;4.60;3.55;;;;;;;;;;5083088;28;20492;-51
2021/05/03 10:21:42;;;;;;;5.80;3.58;;;;;;;;;;5087051;28;20090;-50
2021/05/03 10:24:08;;;;;;;4.32;3.80;;;;;;;;;;5085237;28;20044;-50
2021/05/03 10:26:35;;;;;;;6.43;3.70;;;;;;;;;;5088994;28;20085;-48
2021/05/03 10:29:03;;;;;;;10.85;3.63;;;;;;;;;;5084355;28;20416;-52
2021/05/03 10:31:49;;;;;;;4.97;3.63;;;;;;;;;;5084924;28;20048;-51
2021/05/03 10:34:38;;;;;;;4.50;3.22;;;;;;;;;;5085035;28;20053;-52
2021/05/03 10:37:24;;;;;;;4.60;3.20;;;;;;;;;;5088898;28;20037;-50
2021/05/03 10:39:50;;;;;;;3.83;3.42;;;;;;;;;;5078718;28;20063;-51
2021/05/03 10:42:16;;;;;;;4.53;3.22;;;;;;;;;;5082981;28;20045;-51
2021/05/03 10:45:01;;;;;;;6.10;3.65;;;;;;;;;;5086798;28;20048;-48
2021/05/03 10:47:34;;;;;;;4.68;3.80;;;;;;;;;;5083839;28;20048;-52
2021/05/03 10:50:00;;;;;;;5.05;3.53;;;;;;;;;;5088989;28;20052;-48
2021/05/03 10:52:31;;;;;;;6.25;4.20;;;;;;;;;;5086078;28;20385;-48
2021/05/03 10:54:58;;;;;;;5.32;3.95;;;;;;;;;;5073982;28;20048;-52
2021/05/03 10:57:27;;;;;;;4.13;3.65;;;;;;;;;;5083268;28;20111;-49
2021/05/03 10:59:58;;;;;;;6.20;3.78;;;;;;;;;;5081809;28;20114;-51
2021/05/03 11:02:25;;;;;;;5.38;4.00;;;;;;;;;;5086713;28;20114;-48
2021/05/03 11:05:11;;;;;;;6.88;4.93;;;;;;;;;;5081872;28;20564;-48
2021/05/03 11:07:56;;;;;;;6.05;4.53;;;;;;;;;;5080366;28;20040;-49
2021/05/03 11:10:41;;;;;;;7.43;3.97;;;;;;;;;;5085974;28;20036;-50
2021/05/03 11:13:27;;;;;;;7.43;4.60;;;;;;;;;;5084196;28;20085;-48
2021/05/03 11:15:53;;;;;;;8.70;4.72;;;;;;;;;;5082756;28;20036;-48
2021/05/03 11:18:25;;;;;;;7.65;4.70;;;;;;;;;;5087869;28;20048;-48
2021/05/03 11:21:03;;;;;;;6.20;4.82;;;;;;;;;;5083546;28;20094;-50
2021/05/03 11:23:30;;;;;;;6.03;4.60;;;;;;;;;;5086364;28;20110;-49
2021/05/03 11:25:56;;;;;;;;;;;;;;;;;;5083920;28;20055;-49
2021/05/03 11:28:28;;;;;;;6.03;4.00;;;;;;;;;;5078982;28;19924;-48
2021/05/03 11:31:01;;;;;;;6.25;4.10;;;;;;;;;;5081868;28;20054;-50
2021/05/03 11:33:37;;;;;;;6.18;4.63;;;;;;;;;;5079732;28;20044;-49
2021/05/03 11:36:09;;;;;;;5.97;4.22;;;;;;;;;;5086369;28;20496;-48
2021/05/03 11:38:56;;;;;;;5.97;4.25;;;;;;;;;;5082520;28;20044;-50
2021/05/03 11:42:22;;;;;;;7.90;4.28;;;;;;;;;;5087181;28;20089;-49
2021/05/03 11:45:14;;;;;;;7.88;4.15;;;;;;;;;;5069958;28;20052;-51
2021/05/03 11:47:09;;;;;;;5.72;4.20;;;;;;;;;;5064227;28;20047;-51
2021/05/03 11:49:43;;;;;;;4.82;3.90;;;;;;;;;;5081310;28;20079;-51
2021/05/03 11:52:10;;;;;;;6.68;4.05;;;;;;;;;;5080531;28;20052;-52
2021/05/03 11:54:42;;;;;;;5.60;4.10;;;;;;;;;;5079049;28;20055;-52
2021/05/03 11:57:11;;;;;;;5.88;3.80;;;;;;;;;;5058234;28;20048;-49
2021/05/03 11:59:38;;;;;;;4.80;3.78;;;;;;;;;;5071588;28;20071;-52
2021/05/03 12:02:08;;;;;;;7.43;4.30;;;;;;;;;;5082482;28;20128;-50
2021/05/03 12:04:35;;;;;;;6.55;3.60;;;;;;;;;;5086195;28;20052;-52
2021/05/03 12:07:22;;;;;;;3.60;3.25;;;;;;;;;;5080663;28;20132;-51
2021/05/03 12:09:58;;;;;;;5.88;3.70;;;;;;;;;;5077654;28;20511;-53
2021/05/03 12:12:25;;;;;;;9.50;3.25;;;;;;;;;;5082508;28;20072;-52
2021/05/03 12:14:51;;;;;;;4.25;3.28;;;;;;;;;;5082266;28;20043;-54
2021/05/03 12:17:18;;;;;;;4.00;3.17;;;;;;;;;;5066322;28;20048;-52
2021/05/03 12:19:45;;;;;;;4.57;3.30;;;;;;;;;;5068496;28;20079;-54
2021/05/03 12:22:15;;;;;;;3.90;3.00;;;;;;;;;;5082570;28;20068;-51
2021/05/03 12:24:44;;;;;;;3.75;3.28;;;;;;;;;;5084069;28;20068;-52
2021/05/03 12:27:12;;;;;;;4.90;2.67;;;;;;;;;;5085267;28;20043;-51
2021/05/03 12:29:40;;;;;;;4.53;3.30;;;;;;;;;;5083343;28;20044;-53
2021/05/03 12:32:32;;;;;;;4.38;3.00;;;;;;;;;;5089048;28;20041;-54
2021/05/03 12:35:04;;;;;;;4.28;2.90;;;;;;;;;;5083727;28;20052;-53
2021/05/03 12:37:30;;;;;;;5.28;3.33;;;;;;;;;;5086931;28;20080;-51
2021/05/03 12:40:04;;;;;;;4.60;2.83;;;;;;;;;;5083881;28;20040;-53
2021/05/03 12:42:35;;;;;;;5.80;2.50;;;;;;;;;;5085179;28;20044;-55
2021/05/03 12:45:15;;;;;;;11.32;3.63;;;;;;;;;;5083319;28;20035;-54
2021/05/03 12:53:33;;;;;;;5.30;3.92;;;;;;;;;;5017922;28;20046;-54
2021/05/03 12:58:58;;;;;;;16.50;4.72;;;;;;;;;;5081130;28;20068;-51
2021/05/03 13:01:40;;;;;;;8.23;4.55;;;;;;;;;;5085418;28;20039;-54
2021/05/03 13:04:26;;;;;;;8.48;4.82;;;;;;;;;;5084563;28;20055;-56
2021/05/03 13:07:25;;;;;;;6.35;4.47;;;;;;;;;;5084494;28;20040;-54
2021/05/03 13:29:06;;;;;;;11.85;3.30;;;;;;;;;;5081681;28;19927;-52
2021/05/03 13:31:34;;;;;;;10.15;3.10;;;;;;;;;;5080968;28;20056;-56
2021/05/03 13:34:01;;;;;;;8.68;3.20;;;;;;;;;;5079046;28;20056;-56
2021/05/03 13:36:27;;;;;;;6.13;2.78;;;;;;;;;;5084470;28;20047;-55
2021/05/03 13:38:53;;;;;;;9.93;3.00;;;;;;;;;;5084237;28;20054;-57
2021/05/03 13:41:20;;;;;;;11.68;2.78;;;;;;;;;;5080582;28;20040;-57
2021/05/03 13:43:46;;;;;;;12.35;2.70;;;;;;;;;;5089420;28;20036;-58
2021/05/03 13:46:12;;;;;;;12.18;3.13;;;;;;;;;;5088938;28;20094;-55
2021/05/03 13:48:40;;;;;;;7.78;2.40;;;;;;;;;;5081920;28;20044;-56
2021/05/03 13:51:07;;;;;;;10.45;2.58;;;;;;;;;;5085393;28;20046;-58
2021/05/03 13:53:34;;;;;;;12.27;2.70;;;;;;;;;;5082984;28;20036;-58
2021/05/03 13:56:02;;;;;;;8.02;2.08;;;;;;;;;;5085734;28;20109;-56
2021/05/03 13:58:28;;;;;;;6.65;2.05;;;;;;;;;;5083642;28;20119;-58
2021/05/03 14:00:55;;;;;;;7.93;2.13;;;;;;;;;;5068634;28;20045;-58
2021/05/03 14:03:22;;;;;;;9.00;2.30;;;;;;;;;;5089785;28;20047;-56
2021/05/03 14:05:48;;;;;;;8.25;2.05;;;;;;;;;;5086194;28;20047;-58
2021/05/03 14:08:15;;;;;;;10.82;2.28;;;;;;;;;;5086959;28;20062;-58
2021/05/03 14:10:41;;;;;;;11.70;2.40;;;;;;;;;;5082423;28;20541;-58
2021/05/03 14:13:07;;;;;;;9.48;2.33;;;;;;;;;;5081466;28;20040;-57
2021/05/03 14:15:36;;;;;;;6.78;2.00;;;;;;;;;;5089075;28;20117;-58
2021/05/03 14:18:03;;;;;;;6.90;2.20;;;;;;;;;;5081042;28;20040;-58
2021/05/03 14:20:29;;;;;;;9.27;2.33;;;;;;;;;;5088164;28;20048;-58
2021/05/03 14:22:56;;;;;;;7.20;1.98;;;;;;;;;;5088708;28;20050;-59
2021/05/03 14:25:23;;;;;;;7.97;1.90;;;;;;;;;;5089742;28;20044;-58
2021/05/03 14:27:52;;;;;;;6.85;2.30;;;;;;;;;;5080500;28;20049;-57
2021/05/03 14:31:08;;;;;;;7.05;2.28;;;;;;;;;;5090262;28;20515;-57
2021/05/03 14:35:45;;;;;;;7.50;2.25;;;;;;;;;;5087401;28;20114;-58
2021/05/03 14:38:11;;;;;;;5.93;2.20;;;;;;;;;;5085461;28;20381;-56
2021/05/03 14:40:37;;;;;;;6.18;1.88;;;;;;;;;;5086008;28;20040;-58
2021/05/03 14:43:07;;;;;;;4.22;2.17;;;;;;;;;;5076989;28;20051;-57
2021/05/03 14:45:44;;;;;;;5.25;2.08;;;;;;;;;;5084113;28;20049;-57
2021/05/03 14:53:36;;;;;;;5.90;1.77;;;;;;;;;;5083276;28;20041;-58
2021/05/03 14:56:05;;;;;;;3.17;1.70;;;;;;;;;;5086277;28;20048;-58
2021/05/03 14:58:32;;;;;;;10.60;1.70;;;;;;;;;;5087602;28;20036;-57
2021/05/03 15:00:59;;;;;;;7.47;1.48;;;;;;;;;;5084282;28;20072;-58
2021/05/03 15:03:26;;;;;;;6.43;1.88;;;;;;;;;;5082963;28;20040;-57
2021/05/03 15:05:59;;;;;;;7.00;1.38;;;;;;;;;;5084886;28;20060;-58
2021/05/03 15:08:27;;;;;;;2.90;1.45;;;;;;;;;;5086149;28;20055;-57
2021/05/03 15:10:53;;;;;;;9.07;1.52;;;;;;;;;;5081134;28;20032;-58
2021/05/03 15:13:35;;;;;;;4.65;1.65;;;;;;;;;;5085982;28;20040;-58
2021/05/03 15:23:47;;;;;;;8.60;1.80;;;;;;;;;;5083749;28;20044;-58
2021/05/03 15:26:23;;;;;;;7.70;1.35;;;;;;;;;;5083297;28;20051;-58
2021/05/03 15:29:04;;;;;;;4.22;1.75;;;;;;;;;;5082790;28;20129;-58
2021/05/03 15:32:03;;;;;;;8.05;1.75;;;;;;;;;;5077025;28;20102;-57
2021/05/03 15:34:20;;;;;;;;;;;;;;;;;;5085088;28;20068;-58
2021/05/03 15:36:46;;;;;;;3.85;1.05;;;;;;;;;;5081506;28;19928;-58
2021/05/03 15:39:13;;;;;;;10.07;1.50;;;;;;;;;;5088435;28;20051;-57
2021/05/03 15:41:39;;;;;;;5.07;1.42;;;;;;;;;;5083180;28;20399;-55
2021/05/03 15:44:18;;;;;;;3.20;1.20;;;;;;;;;;5079925;28;20041;-57
2021/05/03 15:46:45;;;;;;;7.28;1.30;;;;;;;;;;5089006;28;20058;-56
2021/05/03 15:49:11;;;;;;;4.28;1.25;;;;;;;;;;5070385;28;20048;-57
2021/05/03 15:51:37;;;;;;;3.38;1.27;;;;;;;;;;5084868;28;20028;-57
2021/05/03 15:54:06;;;;;;;7.07;1.27;;;;;;;;;;5081835;28;20575;-58
2021/05/03 15:56:34;;;;;;;5.65;1.17;;;;;;;;;;5080949;28;20294;-56
2021/05/03 15:59:00;;;;;;;4.30;1.42;;;;;;;;;;5082949;28;20087;-54